This is the latest recevied weather packets stored in our database for station/object OE3PDB-3. If no packets are shown the sender has not sent any weather packets the latest 10 day(s).
| Time | Temp. | Humidity | Pressure | Rain* | Wind** | Luminosity | Snow |
|---|---|---|---|---|---|---|---|
| 1777368654 | 17.22° C | 34% | 1019.6 hPa | 0 mm | - | - | - |
| 1777368054 | 17.78° C | 35% | 1019.6 hPa | 0 mm | - | - | - |
| 1777367454 | 17.22° C | 35% | 1019.6 hPa | 0 mm | - | - | - |
| 1777366854 | 17.22° C | 34% | 1019.7 hPa | 0 mm | - | - | - |
| 1777366254 | 17.22° C | 35% | 1019.6 hPa | 0 mm | - | - | - |
| 1777365654 | 16.67° C | 35% | 1019.7 hPa | 0 mm | - | - | - |
| 1777365054 | 16.11° C | 37% | 1019.8 hPa | 0 mm | - | - | - |
| 1777364454 | 16.11° C | 37% | 1019.6 hPa | 0 mm | - | - | - |
| 1777363854 | 16.67° C | 37% | 1019.7 hPa | 0 mm | - | - | - |
| 1777363254 | 16.67° C | 37% | 1019.6 hPa | 0 mm | - | - | - |
| 1777362654 | 16.67° C | 38% | 1019.6 hPa | 0 mm | - | - | - |
| 1777362054 | 17.22° C | 38% | 1019.5 hPa | 0 mm | - | - | - |
| 1777361455 | 16.67° C | 37% | 1019.6 hPa | 0 mm | - | - | - |
| 1777360854 | 16.67° C | 39% | 1019.5 hPa | 0 mm | - | - | - |
| 1777360254 | 16.11° C | 41% | 1019.5 hPa | 0 mm | - | - | - |
| 1777359654 | 14.44° C | 46% | 1019.5 hPa | 0 mm | - | - | - |
| 1777359054 | 12.22° C | 52% | 1019.5 hPa | 0 mm | - | - | - |
| 1777358455 | 11.11° C | 54% | 1019.4 hPa | 0 mm | - | - | - |
| 1777357855 | 10.56° C | 53% | 1019.3 hPa | 0 mm | - | - | - |
| 1777357255 | 10.56° C | 53% | 1019.4 hPa | 0 mm | - | - | - |
| 1777356655 | 10.56° C | 54% | 1019.4 hPa | 0 mm | - | - | - |
| 1777356055 | 10.56° C | 56% | 1019.4 hPa | 0 mm | - | - | - |
| 1777355455 | 10.56° C | 55% | 1019.4 hPa | 0 mm | - | - | - |
| 1777354855 | 10.56° C | 55% | 1019.3 hPa | 0 mm | - | - | - |
| 1777354255 | 10.56° C | 54% | 1019.4 hPa | 0 mm | - | - | - |
* Rain latest hour (hover to see other rain measurements)
** Current wind speed in m/s (hover to see current wind gust speed)